Aviation Digital Data Service (ADDS)

Output produced by METARs form (1452 UTC 19 July 2019)
found at http://aviationweather.gov/metar/data/
 
METAR text: KDKB 191435Z AUTO 23016G22KT 10SM CLR 29/24 A2982 RMK AO2 T02920244
Conditions at: KDKB (DE KALB , IL, US) observed 1435 UTC 19 July 2019
Temperature: 29.2°C (85°F)
Dewpoint: 24.4°C (76°F) [RH = 75%]
Pressure (altimeter): 29.82 inches Hg (1009.9 mb)
Winds: from the SW (230 degrees) at 18 MPH (16 knots; 8.2 m/s)
gusting to 25 MPH (22 knots; 11.3 m/s)
Visibility: 10 or more miles (16+ km)
Ceiling: at least 12,000 feet AGL
Clouds: sky clear below 12,000 feet AGL
Weather: automated observation with no human augmentation;
there may or may not be significant weather present at this time